createdAt,value
2023-05-03T00:01:13.032Z,8.80
2023-05-03T00:06:16.144Z,8.81
2023-05-03T00:11:17.977Z,8.85
2023-05-03T00:16:20.411Z,8.80
2023-05-03T00:21:22.355Z,8.88
2023-05-03T00:26:24.042Z,8.88
2023-05-03T00:31:25.750Z,8.83
2023-05-03T00:36:28.329Z,8.86
2023-05-03T00:41:29.893Z,8.87
2023-05-03T00:46:31.641Z,8.84
2023-05-03T00:51:33.868Z,8.74
2023-05-03T00:56:47.840Z,8.74
2023-05-03T01:01:53.613Z,8.66
2023-05-03T01:07:08.647Z,8.68
2023-05-03T01:12:21.375Z,8.61
2023-05-03T01:17:30.004Z,8.61
2023-05-03T01:22:39.183Z,8.64
2023-05-03T01:27:42.303Z,8.54
2023-05-03T01:33:35.552Z,8.55
2023-05-03T01:38:39.672Z,8.57
2023-05-03T01:43:43.733Z,8.51
2023-05-03T01:48:45.349Z,8.50
2023-05-03T01:53:47.054Z,8.34
2023-05-03T01:58:50.744Z,8.24
2023-05-03T02:03:53.534Z,8.09
2023-05-03T02:08:55.540Z,7.98
2023-05-03T02:13:57.225Z,8.08
2023-05-03T02:18:59.692Z,8.02
2023-05-03T02:24:01.913Z,8.01
2023-05-03T02:29:03.895Z,8.06
2023-05-03T02:34:07.778Z,8.15
2023-05-03T02:39:10.736Z,8.14
2023-05-03T02:44:12.525Z,8.16
2023-05-03T02:49:14.266Z,8.01
2023-05-03T02:54:16.821Z,7.94
2023-05-03T02:59:19.353Z,7.85
2023-05-03T03:04:24.151Z,7.70
2023-05-03T03:09:26.116Z,7.69
2023-05-03T03:14:28.192Z,7.73
2023-05-03T03:19:29.983Z,7.74
2023-05-03T03:24:31.889Z,7.69
2023-05-03T03:29:35.352Z,7.71
2023-05-03T03:34:39.318Z,7.71
2023-05-03T03:39:41.196Z,7.55
2023-05-03T03:44:43.043Z,7.44
2023-05-03T03:49:44.911Z,7.46
2023-05-03T03:54:47.913Z,7.42
2023-05-03T03:59:51.747Z,7.39
2023-05-03T04:04:53.542Z,7.42
2023-05-03T04:09:56.654Z,7.45
2023-05-03T04:14:59.777Z,7.49
2023-05-03T04:20:11.101Z,7.52
2023-05-03T04:25:14.917Z,7.55
2023-05-03T04:30:20.213Z,7.54
2023-05-03T04:35:25.163Z,7.55
2023-05-03T04:40:27.486Z,7.62
2023-05-03T04:45:37.505Z,7.67
2023-05-03T04:50:41.219Z,7.70
2023-05-03T04:55:45.253Z,7.81
2023-05-03T05:00:46.929Z,7.86
2023-05-03T05:05:56.913Z,7.93
2023-05-03T05:10:59.483Z,7.95
2023-05-03T05:16:05.994Z,7.95
2023-05-03T05:21:08.109Z,8.05
2023-05-03T05:26:10.987Z,8.23
2023-05-03T05:31:13.700Z,8.20
2023-05-03T05:36:15.977Z,8.29
2023-05-03T05:41:18.984Z,8.38
2023-05-03T05:46:21.561Z,8.47
2023-05-03T05:51:26.708Z,8.34
2023-05-03T05:56:29.516Z,8.27
2023-05-03T06:01:32.262Z,8.45
2023-05-03T06:06:35.105Z,8.38
2023-05-03T06:11:38.329Z,8.30
2023-05-03T06:16:41.262Z,8.36
2023-05-03T06:21:43.106Z,8.33
2023-05-03T06:26:46.133Z,8.44
2023-05-03T06:31:48.124Z,8.25
2023-05-03T06:36:51.788Z,8.20
2023-05-03T06:41:53.690Z,8.49
2023-05-03T06:46:55.605Z,8.52
2023-05-03T06:51:57.621Z,8.41
2023-05-03T06:57:01.792Z,8.46
2023-05-03T07:02:03.548Z,8.63
2023-05-03T07:07:06.542Z,8.59
2023-05-03T07:12:08.221Z,9.01
2023-05-03T07:17:11.353Z,9.02
2023-05-03T07:22:13.026Z,9.06
2023-05-03T07:27:15.537Z,9.16
2023-05-03T07:32:17.217Z,8.96
2023-05-03T07:37:18.919Z,8.98
2023-05-03T07:42:20.728Z,9.36
2023-05-03T07:47:26.394Z,9.50
2023-05-03T07:52:27.981Z,9.71
2023-05-03T07:57:29.584Z,9.66
2023-05-03T08:02:31.395Z,9.87
2023-05-03T08:07:33.376Z,9.99
2023-05-03T08:12:36.180Z,10.00
2023-05-03T08:17:45.817Z,10.50
2023-05-03T08:22:47.538Z,10.68
2023-05-03T08:27:53.327Z,10.89
2023-05-03T08:32:54.980Z,10.44
2023-05-03T08:37:56.760Z,10.63
2023-05-03T08:43:02.191Z,10.73
2023-05-03T08:48:04.705Z,11.10
2023-05-03T08:53:06.450Z,11.67
2023-05-03T08:58:12.599Z,11.61
2023-05-03T09:03:14.477Z,11.65
2023-05-03T09:08:17.236Z,11.71
2023-05-03T09:13:19.416Z,11.64
2023-05-03T09:18:21.778Z,11.47
2023-05-03T09:23:26.258Z,11.36
2023-05-03T09:28:28.074Z,11.39
2023-05-03T09:33:29.835Z,11.65
2023-05-03T09:38:33.789Z,11.93
2023-05-03T09:43:38.578Z,12.23
2023-05-03T09:48:41.237Z,12.17
2023-05-03T09:53:43.126Z,12.25
2023-05-03T09:58:44.815Z,12.60
2023-05-03T10:03:52.957Z,12.85
2023-05-03T10:09:06.144Z,13.00
2023-05-03T10:14:08.080Z,12.89
2023-05-03T10:19:58.658Z,13.13
2023-05-03T10:25:00.539Z,13.40
2023-05-03T10:30:03.258Z,13.26
2023-05-03T10:35:15.757Z,13.27
2023-05-03T10:40:19.580Z,13.18
2023-05-03T10:45:28.696Z,13.03
2023-05-03T10:50:30.440Z,13.28
2023-05-03T10:55:32.335Z,13.44
2023-05-03T11:00:39.178Z,13.56
2023-05-03T11:05:40.944Z,13.35
2023-05-03T11:10:44.533Z,13.84
2023-05-03T11:15:48.406Z,13.88
2023-05-03T11:20:50.848Z,14.17
2023-05-03T11:25:52.784Z,14.55
2023-05-03T11:30:54.872Z,14.46
2023-05-03T11:35:57.037Z,14.28
2023-05-03T11:41:00.143Z,14.40
2023-05-03T11:46:02.146Z,14.53
2023-05-03T11:51:09.387Z,14.82
2023-05-03T11:56:17.981Z,15.18
2023-05-03T12:01:24.235Z,14.99
2023-05-03T12:06:32.177Z,15.26
2023-05-03T12:11:43.684Z,15.24
2023-05-03T12:16:50.911Z,15.19
2023-05-03T12:26:57.876Z,15.38
2023-05-03T12:32:03.205Z,15.04
2023-05-03T12:37:06.591Z,15.44
2023-05-03T12:42:09.375Z,15.18
2023-05-03T12:47:19.690Z,14.85
2023-05-03T12:57:31.150Z,15.30
2023-05-03T13:07:42.487Z,15.37
2023-05-03T13:12:45.685Z,15.34
2023-05-03T13:17:48.529Z,15.48
2023-05-03T13:22:52.766Z,15.31
2023-05-03T13:27:54.705Z,15.49
2023-05-03T13:32:56.480Z,15.70
2023-05-03T13:37:58.148Z,15.66
2023-05-03T13:42:59.907Z,15.74
2023-05-03T13:48:18.260Z,15.66
2023-05-03T13:53:21.049Z,15.32
2023-05-03T13:58:22.769Z,15.20
2023-05-03T14:03:25.078Z,15.17
2023-05-03T14:08:26.882Z,15.22
2023-05-03T14:13:32.901Z,14.92
2023-05-03T14:18:39.991Z,15.02
2023-05-03T14:23:46.903Z,14.90
2023-05-03T14:28:48.526Z,15.06
2023-05-03T14:33:52.068Z,15.14
2023-05-03T14:38:53.734Z,15.04
2023-05-03T14:43:56.145Z,15.03
2023-05-03T14:48:57.952Z,14.82
2023-05-03T14:53:59.899Z,14.97
2023-05-03T14:59:01.872Z,15.11
2023-05-03T15:04:07.956Z,14.86
2023-05-03T15:09:12.075Z,14.92
2023-05-03T15:14:13.828Z,15.17
2023-05-03T15:19:15.484Z,15.19
2023-05-03T15:24:18.161Z,15.01
2023-05-03T15:29:21.560Z,15.32
2023-05-03T15:34:23.425Z,15.27
2023-05-03T15:39:25.217Z,15.07
2023-05-03T15:44:26.860Z,14.81
2023-05-03T15:49:28.639Z,15.04
2023-05-03T15:54:30.582Z,14.80
2023-05-03T15:59:32.381Z,14.85
2023-05-03T16:04:37.229Z,14.86
2023-05-03T16:09:38.984Z,14.60
2023-05-03T16:14:43.363Z,14.53
2023-05-03T16:19:45.124Z,14.35
2023-05-03T16:24:47.347Z,14.13
2023-05-03T16:29:49.083Z,14.34
2023-05-03T16:34:53.409Z,14.88
2023-05-03T16:39:55.573Z,14.75
2023-05-03T16:44:57.558Z,14.33
2023-05-03T16:50:02.824Z,14.12
2023-05-03T16:55:06.436Z,14.19
2023-05-03T17:00:10.185Z,13.96
2023-05-03T17:05:13.700Z,13.89
2023-05-03T17:10:15.915Z,13.91
2023-05-03T17:19:13.662Z,13.53
2023-05-03T17:24:15.669Z,13.44
2023-05-03T17:29:17.409Z,13.14
2023-05-03T17:34:20.671Z,13.00
2023-05-03T17:39:24.781Z,12.99
2023-05-03T17:44:27.175Z,12.91
2023-05-03T17:49:30.065Z,12.78
2023-05-03T17:54:32.868Z,12.55
2023-05-03T17:59:34.618Z,12.65
2023-05-03T18:04:36.310Z,12.62
2023-05-03T18:09:38.229Z,12.86
2023-05-03T18:14:39.945Z,12.55
2023-05-03T18:19:44.806Z,12.84
2023-05-03T18:24:46.526Z,12.69
2023-05-03T18:29:49.066Z,12.62
2023-05-03T18:34:51.244Z,12.50
2023-05-03T18:39:52.917Z,12.64
2023-05-03T18:44:54.646Z,12.32
2023-05-03T18:49:56.689Z,12.16
2023-05-03T18:54:58.398Z,12.19
2023-05-03T19:00:01.474Z,12.02
2023-05-03T19:05:03.677Z,12.29
2023-05-03T19:10:06.694Z,12.18
2023-05-03T19:15:09.189Z,11.90
2023-05-03T19:20:12.068Z,11.49
2023-05-03T19:25:14.995Z,11.55
2023-05-03T19:30:16.798Z,11.48
2023-05-03T19:35:18.509Z,11.49
2023-05-03T19:40:21.707Z,11.52
2023-05-03T19:45:23.992Z,11.35
2023-05-03T19:50:25.773Z,11.51
2023-05-03T19:55:27.454Z,11.35
2023-05-03T20:00:29.926Z,11.18
2023-05-03T20:05:31.642Z,10.98
2023-05-03T20:10:36.395Z,11.14
2023-05-03T20:15:38.081Z,11.18
2023-05-03T20:20:39.807Z,11.11
2023-05-03T20:25:41.591Z,10.97
2023-05-03T20:30:43.397Z,10.98
2023-05-03T20:35:45.208Z,10.84
2023-05-03T20:40:46.910Z,10.76
2023-05-03T20:45:48.674Z,10.83
2023-05-03T20:50:53.117Z,10.53
2023-05-03T20:55:56.433Z,10.53
2023-05-03T21:00:58.330Z,10.44
2023-05-03T21:06:00.193Z,10.56
2023-05-03T21:11:02.234Z,10.47
2023-05-03T21:16:04.548Z,10.54
2023-05-03T21:21:06.366Z,10.54
2023-05-03T21:26:08.115Z,10.50
2023-05-03T21:31:10.206Z,10.27
2023-05-03T21:36:12.656Z,10.13
2023-05-03T21:41:14.282Z,10.16
2023-05-03T21:46:15.998Z,10.01
2023-05-03T21:51:22.338Z,10.08
2023-05-03T21:56:23.970Z,9.93
2023-05-03T22:01:25.637Z,9.77
2023-05-03T22:06:27.349Z,9.73
2023-05-03T22:11:29.202Z,9.77
2023-05-03T22:16:31.080Z,9.75
2023-05-03T22:21:32.899Z,9.65
2023-05-03T22:26:34.587Z,9.71
2023-05-03T22:31:36.370Z,9.60
2023-05-03T22:36:38.386Z,9.57
2023-05-03T22:41:40.536Z,9.41
2023-05-03T22:46:43.822Z,9.43
2023-05-03T22:51:46.134Z,9.54
2023-05-03T22:56:47.942Z,9.49
2023-05-03T23:01:51.853Z,9.42
2023-05-03T23:06:53.639Z,9.36
2023-05-03T23:11:56.619Z,9.24
2023-05-03T23:16:58.399Z,9.25
2023-05-03T23:22:00.199Z,9.15
2023-05-03T23:27:01.937Z,9.10
2023-05-03T23:32:04.304Z,9.16
2023-05-03T23:37:06.507Z,9.07
2023-05-03T23:42:08.134Z,9.13
2023-05-03T23:47:10.007Z,8.96
2023-05-03T23:52:11.724Z,9.05
2023-05-03T23:57:13.301Z,8.88
